Time;durP1;ratioP1;P1;durP2;ratioP2;P2;SDS_P1;SDS_P2;PMS_P1;PMS_P2;Temp;Humidity;BMP_temperature;BMP_pressure;BME280_temperature;BME280_humidity;BME280_pressure;Samples;Min_cycle;Max_cycle;Signal;HPM_P1;HPM_P2
2021/07/14 00:01:48;;;;;;;;;;;;;;;-142.75;76.34;76507.31;5084521;28;19964;-80
2021/07/14 00:04:13;;;;;;;;;;;;;;;-142.75;76.33;76507.31;5081131;28;19923;-82
2021/07/14 00:06:39;;;;;;;;;;;;;;;-142.75;76.40;76505.34;5094706;28;19916;-79
2021/07/14 00:09:08;;;;;;;;;;;;;;;-142.75;76.38;76495.50;5088881;28;19924;-81
2021/07/14 00:11:38;;;;;;;;;;;;;;;-142.75;76.39;76503.38;5086092;28;20378;-82
2021/07/14 00:14:34;;;;;;;;;;;;;;;-142.75;76.59;76501.41;5094746;28;19916;-78
2021/07/14 00:22:18;;;;;;;;;;;;;;;-142.75;76.59;76497.47;5094839;28;19927;-85
2021/07/14 00:24:44;;;;;;;;;;;;;;;-142.75;76.56;76493.53;5078994;28;19920;-81
2021/07/14 00:27:10;;;;;;;;;;;;;;;-142.75;76.61;76493.53;5084715;28;19917;-81
2021/07/14 00:29:40;;;;;;;;;;;;;;;-142.75;76.83;76495.50;5081043;28;20015;-80
2021/07/14 00:32:06;;;;;;;;;;;;;;;-142.75;77.00;76497.47;5092960;28;20274;-81
2021/07/14 00:34:31;;;;;;;;;;;;;;;-142.75;76.97;76491.56;5083080;28;20435;-82
2021/07/14 00:36:57;;;;;;;;;;;;;;;-142.75;76.95;76491.56;5081760;28;19924;-80
2021/07/14 00:39:22;;;;;;;;;;;;;;;-142.75;76.99;76499.44;5080638;28;19920;-79
2021/07/14 00:41:47;;;;;;;;;;;;;;;-142.75;77.01;76493.53;5082084;28;19945;-80
2021/07/14 00:44:12;;;;;;;;;;;;;;;-142.75;77.03;76487.63;5085649;28;19966;-82
2021/07/14 00:46:39;;;;;;;;;;;;;;;-142.75;77.04;76487.63;5093231;28;19926;-82
2021/07/14 00:49:06;;;;;;;;;;;;;;;-142.75;77.11;76487.63;5082510;28;19916;-82
2021/07/14 00:51:31;;;;;;;;;;;;;;;-142.75;76.88;76483.69;5092321;28;20362;-81
2021/07/14 00:53:58;;;;;;;;;;;;;;;-142.75;77.11;76487.63;5094055;28;19916;-81
2021/07/14 00:56:24;;;;;;;;;;;;;;;-142.75;77.16;76487.63;5086859;28;19969;-80
2021/07/14 00:58:49;;;;;;;;;;;;;;;-142.75;77.28;76493.53;5093464;28;19928;-80
2021/07/14 01:01:15;;;;;;;;;;;;;;;-142.75;77.15;76493.53;5081723;28;19916;-81
2021/07/14 01:03:44;;;;;;;;;;;;;;;-142.75;77.25;76493.53;5083546;28;19992;-81
2021/07/14 01:06:25;;;;;;;;;;;;;;;-142.75;77.31;76491.56;5093436;28;19916;-81
2021/07/14 01:09:01;;;;;;;;;;;;;;;-142.75;77.45;76487.63;5086458;28;19923;-83
2021/07/14 01:11:30;;;;;;;;;;;;;;;-142.75;77.55;76489.59;5087243;28;20297;-80
2021/07/14 01:14:21;;;;;;;;;;;;;;;-142.75;77.68;76493.53;5093143;28;19962;-80
2021/07/14 01:16:49;;;;;;;;;;;;;;;-142.75;77.79;76487.63;5085476;28;20293;-81
2021/07/14 01:19:33;;;;;;;;;;;;;;;-142.75;77.96;76483.69;5082218;28;20014;-82
2021/07/14 01:22:04;;;;;;;;;;;;;;;-142.75;78.00;76483.69;5091711;28;20393;-80
2021/07/14 01:24:32;;;;;;;;;;;;;;;-142.75;78.09;76487.63;5093193;28;19917;-78
2021/07/14 01:27:06;;;;;;;;;;;;;;;-142.75;78.14;76485.66;5081362;28;19917;-80
2021/07/14 01:29:39;;;;;;;;;;;;;;;-142.75;78.16;76483.69;5092165;28;20420;-81
2021/07/14 01:32:05;;;;;;;;;;;;;;;-142.75;78.25;76483.69;5091738;28;20029;-81
2021/07/14 01:34:31;;;;;;;;;;;;;;;-142.75;78.46;76483.69;5082587;28;19916;-80
2021/07/14 01:36:59;;;;;;;;;;;;;;;-142.75;78.59;76483.69;5082857;28;19924;-80
2021/07/14 01:39:27;;;;;;;;;;;;;;;-142.75;78.80;76489.59;5091628;28;20016;-82
2021/07/14 01:41:53;;;;;;;;;;;;;;;-142.75;78.87;76489.59;5080855;28;20353;-82
2021/07/14 01:44:19;;;;;;;;;;;;;;;-142.75;78.93;76485.66;5081440;28;19966;-82
2021/07/14 01:46:44;;;;;;;;;;;;;;;-142.75;79.08;76491.56;5085181;28;20355;-80
2021/07/14 01:49:14;;;;;;;;;;;;;;;-142.75;79.14;76489.59;5079112;28;19916;-79
2021/07/14 01:51:43;;;;;;;;;;;;;;;-142.75;79.28;76483.69;5092497;28;19923;-78
2021/07/14 01:54:08;;;;;;;;;;;;;;;-142.75;79.41;76491.56;5092724;28;19920;-82
2021/07/14 01:56:35;;;;;;;;;;;;;;;-142.75;79.65;76487.63;5092477;28;19965;-81
2021/07/14 01:59:01;;;;;;;;;;;;;;;-142.75;79.81;76487.63;5092346;28;19927;-80
2021/07/14 02:01:27;;;;;;;;;;;;;;;-142.75;80.03;76493.53;5085380;28;19916;-80
2021/07/14 02:06:38;;;;;;;;;;;;;;;-142.75;80.30;76495.50;5092038;28;19968;-82
2021/07/14 02:09:03;;;;;;;;;;;;;;;-142.75;80.26;76491.56;5080977;28;20427;-81
2021/07/14 02:11:29;;;;;;;;;;;;;;;-142.75;80.37;76495.50;5081709;28;20023;-82
2021/07/14 02:13:55;;;;;;;;;;;;;;;-142.75;80.22;76495.50;5091917;28;20369;-80
2021/07/14 02:16:21;;;;;;;;;;;;;;;-142.75;80.20;76495.50;5077924;28;19916;-79
2021/07/14 02:18:50;;;;;;;;;;;;;;;-142.75;80.19;76477.78;5078789;28;19998;-81
2021/07/14 02:21:15;;;;;;;;;;;;;;;-142.75;80.14;76475.81;5090695;28;19923;-79
2021/07/14 02:23:40;;;;;;;;;;;;;;;-142.75;80.08;76479.75;5091921;28;19916;-80
2021/07/14 02:26:06;;;;;;;;;;;;;;;-142.75;80.07;76465.97;5075590;28;19916;-82
2021/07/14 02:28:31;;;;;;;;;;;;;;;-142.75;79.98;76464.00;5084929;28;20293;-82
2021/07/14 02:30:56;;;;;;;;;;;;;;;-142.75;79.93;76469.91;5080014;28;20439;-80
2021/07/14 02:33:22;;;;;;;;;;;;;;;-142.75;79.90;76458.09;5091370;28;19930;-81
2021/07/14 02:35:49;;;;;;;;;;;;;;;-142.75;79.69;76458.09;5090974;28;19920;-80
2021/07/14 02:38:14;;;;;;;;;;;;;;;-142.75;79.60;76464.00;5091832;28;19916;-80
2021/07/14 02:40:46;;;;;;;;;;;;;;;-142.75;79.36;76462.03;5091225;28;19923;-81
2021/07/14 02:43:13;;;;;;;;;;;;;;;-142.75;79.29;76465.97;5078451;28;19951;-79
2021/07/14 02:45:43;;;;;;;;;;;;;;;-142.75;79.27;76464.00;5085579;28;19927;-81
2021/07/14 02:48:08;;;;;;;;;;;;;;;-142.75;79.17;76462.03;5090346;28;19916;-79
2021/07/14 02:50:35;;;;;;;;;;;;;;;-142.75;79.18;76464.00;5083965;28;19961;-81
2021/07/14 02:53:04;;;;;;;;;;;;;;;-142.75;78.69;76454.16;5081397;28;19938;-82
2021/07/14 02:55:31;;;;;;;;;;;;;;;-142.75;78.38;76454.16;5080608;28;19923;-80
2021/07/14 02:57:58;;;;;;;;;;;;;;;-142.75;78.17;76456.13;5075574;28;20408;-81
2021/07/14 03:00:24;;;;;;;;;;;;;;;-142.75;77.86;76458.09;5089265;28;19924;-82
2021/07/14 03:02:50;;;;;;;;;;;;;;;-142.75;77.77;76448.25;5091464;28;19923;-80
2021/07/14 03:05:16;;;;;;;;;;;;;;;-142.75;77.89;76450.22;5083047;28;19916;-82
2021/07/14 03:07:42;;;;;;;;;;;;;;;-142.75;77.88;76452.19;5083014;28;19958;-80
2021/07/14 03:10:08;;;;;;;;;;;;;;;-142.75;77.92;76456.13;5080056;28;20341;-82
2021/07/14 03:12:33;;;;;;;;;;;;;;;-142.75;77.86;76450.22;5079645;28;20010;-79
2021/07/14 03:15:02;;;;;;;;;;;;;;;-142.75;77.93;76452.19;5076603;28;19970;-80
2021/07/14 03:17:28;;;;;;;;;;;;;;;-142.75;77.78;76448.25;5098758;28;19966;-82
2021/07/14 03:19:54;;;;;;;;;;;;;;;-142.75;77.68;76448.25;5090940;28;19934;-81
2021/07/14 03:22:21;;;;;;;;;;;;;;;-142.75;77.60;76444.31;5085345;28;19962;-81
2021/07/14 03:24:46;;;;;;;;;;;;;;;-142.75;77.40;76446.28;5091036;28;20285;-81
2021/07/14 03:27:12;;;;;;;;;;;;;;;-142.75;77.30;76452.19;5077569;28;19924;-81
2021/07/14 03:29:38;;;;;;;;;;;;;;;-142.75;77.32;76448.25;5080484;28;19942;-79
2021/07/14 03:32:04;;;;;;;;;;;;;;;-142.75;77.36;76448.25;5091527;28;19920;-80
2021/07/14 03:34:33;;;;;;;;;;;;;;;-142.75;77.33;76448.25;5082551;28;19916;-80
2021/07/14 03:37:04;;;;;;;;;;;;;;;-142.75;77.38;76454.16;5091246;28;19920;-81
2021/07/14 03:39:29;;;;;;;;;;;;;;;-142.75;77.45;76458.09;5081518;28;19920;-80
2021/07/14 03:41:55;;;;;;;;;;;;;;;-142.75;77.58;76460.06;5084323;28;19916;-84
2021/07/14 03:44:21;;;;;;;;;;;;;;;-142.75;77.59;76456.13;5074140;28;20006;-81
2021/07/14 03:46:47;;;;;;;;;;;;;;;-142.75;77.58;76454.16;5090701;28;19951;-81
2021/07/14 03:49:13;;;;;;;;;;;;;;;-142.75;77.54;76456.13;5090955;28;19959;-81
2021/07/14 03:51:39;;;;;;;;;;;;;;;-142.75;77.57;76460.06;5080473;28;20352;-79
2021/07/14 03:54:04;;;;;;;;;;;;;;;-142.75;77.58;76464.00;5081792;28;19916;-80
2021/07/14 03:56:30;;;;;;;;;;;;;;;-142.75;77.54;76460.06;5090373;28;19916;-82
2021/07/14 03:58:58;;;;;;;;;;;;;;;-142.75;77.59;76454.16;5077608;28;19964;-82
2021/07/14 04:01:24;;;;;;;;;;;;;;;-142.75;77.47;76456.13;5078509;28;20327;-79
2021/07/14 04:03:50;;;;;;;;;;;;;;;-142.75;77.63;76456.13;5081947;28;19977;-80
2021/07/14 04:06:16;;;;;;;;;;;;;;;-142.75;77.66;76456.13;5091121;28;19916;-80
2021/07/14 04:08:45;;;;;;;;;;;;;;;-142.75;77.75;76456.13;5077856;28;19981;-80
2021/07/14 04:11:11;;;;;;;;;;;;;;;-142.75;77.74;76456.13;5083260;28;19923;-81
2021/07/14 04:13:36;;;;;;;;;;;;;;;-142.75;77.93;76462.03;5084785;28;19916;-81
2021/07/14 04:16:02;;;;;;;;;;;;;;;-142.75;77.95;76465.97;5083180;28;20483;-82
2021/07/14 04:18:27;;;;;;;;;;;;;;;-142.75;78.06;76467.94;5085073;28;19920;-81
2021/07/14 04:20:52;;;;;;;;;;;;;;;-142.75;78.13;76462.03;5085653;28;20305;-82
2021/07/14 04:23:17;;;;;;;;;;;;;;;-142.75;78.13;76456.13;5093946;28;20004;-81
2021/07/14 04:25:42;;;;;;;;;;;;;;;-142.75;78.18;76452.19;5084402;28;19916;-82
2021/07/14 04:28:08;;;;;;;;;;;;;;;-142.75;77.96;76460.06;5094441;28;20377;-81
2021/07/14 04:30:34;;;;;;;;;;;;;;;-142.75;78.13;76460.06;5093753;28;20284;-80
2021/07/14 04:32:59;;;;;;;;;;;;;;;-142.75;78.26;76462.03;5083169;28;19916;-80
2021/07/14 04:35:24;;;;;;;;;;;;;;;-142.75;78.21;76456.13;5092874;28;19923;-84
2021/07/14 04:37:50;;;;;;;;;;;;;;;-142.75;78.24;76458.09;5084664;28;19920;-80
2021/07/14 04:40:15;;;;;;;;;;;;;;;-142.75;78.25;76454.16;5086448;28;19999;-80
2021/07/14 04:42:41;;;;;;;;;;;;;;;-142.75;78.16;76456.13;5082422;28;19939;-80
2021/07/14 04:45:06;;;;;;;;;;;;;;;-142.75;78.23;76462.03;5084538;28;19916;-78
2021/07/14 04:47:32;;;;;;;;;;;;;;;-142.75;78.20;76465.97;5083734;28;19931;-80
2021/07/14 04:49:57;;;;;;;;;;;;;;;-142.75;78.20;76460.06;5087284;28;19973;-80
2021/07/14 04:52:23;;;;;;;;;;;;;;;-142.75;78.26;76460.06;5087131;28;19920;-80
2021/07/14 04:54:48;;;;;;;;;;;;;;;-142.75;78.19;76454.16;5078275;28;20558;-79
2021/07/14 04:57:13;;;;;;;;;;;;;;;-142.75;78.04;76456.13;5081037;28;20297;-80
2021/07/14 04:59:38;;;;;;;;;;;;;;;-142.75;78.12;76460.06;5085745;28;19935;-79
2021/07/14 05:02:04;;;;;;;;;;;;;;;-142.75;78.33;76462.03;5087979;28;19916;-82
2021/07/14 05:04:30;;;;;;;;;;;;;;;-142.75;78.38;76464.00;5093672;28;20383;-80
2021/07/14 05:06:57;;;;;;;;;;;;;;;-142.75;78.44;76471.88;5092766;28;21490;-80
2021/07/14 05:09:22;;;;;;;;;;;;;;;-142.75;78.24;76471.88;5094139;28;20011;-83
2021/07/14 05:11:48;;;;;;;;;;;;;;;-142.75;78.04;76462.03;5081959;28;20391;-80
2021/07/14 05:14:13;;;;;;;;;;;;;;;-142.75;77.90;76464.00;5093600;28;20397;-79
2021/07/14 05:16:38;;;;;;;;;;;;;;;-142.75;77.75;76460.06;5082937;28;19916;-81
2021/07/14 05:19:04;;;;;;;;;;;;;;;-142.75;77.77;76454.16;5082058;28;19927;-81
2021/07/14 05:21:29;;;;;;;;;;;;;;;-142.75;77.41;76454.16;5084947;28;19942;-80
2021/07/14 05:23:54;;;;;;;;;;;;;;;-142.75;77.33;76450.22;5093644;28;19916;-81
2021/07/14 05:26:20;;;;;;;;;;;;;;;-142.75;77.11;76448.25;5093089;28;19916;-82
2021/07/14 05:28:46;;;;;;;;;;;;;;;-142.75;76.95;76450.22;5093258;28;19916;-81
2021/07/14 05:31:11;;;;;;;;;;;;;;;-142.75;76.79;76446.28;5092589;28;20007;-79
2021/07/14 05:33:36;;;;;;;;;;;;;;;-142.75;76.78;76452.19;5092611;28;20381;-79
2021/07/14 05:36:02;;;;;;;;;;;;;;;-142.75;76.66;76446.28;5082122;28;19924;-83
2021/07/14 05:38:28;;;;;;;;;;;;;;;-142.75;76.70;76458.09;5092841;28;20290;-82
2021/07/14 05:40:54;;;;;;;;;;;;;;;-142.75;76.61;76467.94;5092939;28;19916;-82
2021/07/14 05:43:19;;;;;;;;;;;;;;;-142.75;76.86;76465.97;5082309;28;20011;-81
2021/07/14 05:45:45;;;;;;;;;;;;;;;-142.75;76.98;76481.72;5109909;22;20398;-80
2021/07/14 05:48:10;;;;;;;;;;;;;;;-142.75;77.11;76485.66;5071728;28;19928;-82
2021/07/14 05:50:36;;;;;;;;;;;;;;;-142.75;77.11;76481.72;5072022;28;20007;-79
2021/07/14 05:53:01;;;;;;;;;;;;;;;-142.75;77.07;76487.63;5073237;28;20308;-80
2021/07/14 05:55:26;;;;;;;;;;;;;;;-142.75;77.10;76495.50;5073718;28;19984;-79
2021/07/14 05:57:53;;;;;;;;;;;;;;;-142.75;77.26;76503.38;5054122;28;19916;-78
2021/07/14 06:00:18;;;;;;;;;;;;;;;-142.75;77.43;76499.44;5056629;28;19925;-78
2021/07/14 06:02:44;;;;;;;;;;;;;;;-142.75;77.53;76503.38;5066117;28;19927;-80
2021/07/14 06:05:10;;;;;;;;;;;;;;;-142.75;77.42;76503.38;5055716;28;19923;-81
2021/07/14 06:07:35;;;;;;;;;;;;;;;-142.75;77.36;76511.25;5052030;28;19932;-82
2021/07/14 06:10:00;;;;;;;;;;;;;;;-142.75;77.16;76507.31;5062549;28;19916;-79
2021/07/14 06:12:25;;;;;;;;;;;;;;;-142.75;77.19;76509.28;5063402;28;19936;-80
2021/07/14 06:14:51;;;;;;;;;;;;;;;-142.75;76.99;76507.31;5068810;28;19963;-80
2021/07/14 06:17:16;;;;;;;;;;;;;;;-142.75;76.63;76503.38;5052416;28;19916;-80
2021/07/14 06:19:42;;;;;;;;;;;;;;;-142.75;76.49;76507.31;5056748;28;19970;-80
2021/07/14 06:22:07;;;;;;;;;;;;;;;-142.75;76.44;76507.31;5059812;28;19916;-78
2021/07/14 06:24:32;;;;;;;;;;;;;;;-142.75;76.47;76507.31;5053025;28;19947;-78
2021/07/14 06:26:58;;;;;;;;;;;;;;;-142.75;76.61;76507.31;5060919;28;20366;-79
2021/07/14 06:29:23;;;;;;;;;;;;;;;-142.75;76.97;76511.25;5054227;28;19923;-80
2021/07/14 06:31:49;;;;;;;;;;;;;;;-142.75;77.04;76515.19;5052563;28;19924;-79
2021/07/14 06:34:14;;;;;;;;;;;;;;;-142.75;77.16;76511.25;5057520;28;19916;-81
2021/07/14 06:36:39;;;;;;;;;;;;;;;-142.75;77.04;76515.19;5067636;28;19916;-79
2021/07/14 06:39:05;;;;;;;;;;;;;;;-142.75;76.99;76507.31;5050171;28;19983;-81
2021/07/14 06:41:30;;;;;;;;;;;;;;;-142.75;76.86;76507.31;5053781;28;19923;-80
2021/07/14 06:43:59;;;;;;;;;;;;;;;-142.75;76.76;76513.22;5051961;28;19921;-82
2021/07/14 06:46:24;;;;;;;;;;;;;;;-142.75;76.38;76515.19;5051651;28;19917;-80
2021/07/14 06:48:50;;;;;;;;;;;;;;;-142.75;76.43;76515.19;5052370;28;19932;-79
2021/07/14 06:51:15;;;;;;;;;;;;;;;-142.75;76.58;76513.22;5053446;28;20312;-82
2021/07/14 06:53:40;;;;;;;;;;;;;;;-142.75;76.37;76515.19;5052145;28;19916;-78
2021/07/14 06:56:06;;;;;;;;;;;;;;;-142.75;76.34;76511.25;5053342;28;19927;-78
2021/07/14 06:58:33;;;;;;;;;;;;;;;-142.75;76.40;76509.28;5060755;28;19941;-82
2021/07/14 07:00:58;;;;;;;;;;;;;;;-142.75;76.47;76503.38;5065992;28;19964;-79
2021/07/14 07:03:23;;;;;;;;;;;;;;;-142.75;76.44;76511.25;5051073;28;20348;-80
2021/07/14 07:05:49;;;;;;;;;;;;;;;-142.75;76.33;76503.38;5051164;28;19961;-81
2021/07/14 07:08:14;;;;;;;;;;;;;;;-142.75;76.31;76507.31;5055042;28;20022;-80
2021/07/14 07:10:40;;;;;;;;;;;;;;;-142.75;76.12;76507.31;5060590;28;20518;-81
2021/07/14 07:13:06;;;;;;;;;;;;;;;-142.75;76.01;76503.38;5061577;28;19959;-81
2021/07/14 07:15:31;;;;;;;;;;;;;;;-142.75;76.25;76501.41;5059401;28;19917;-80
2021/07/14 07:17:56;;;;;;;;;;;;;;;-142.75;76.25;76507.31;5066928;28;19923;-79
2021/07/14 07:20:21;;;;;;;;;;;;;;;-142.75;76.11;76499.44;5052519;28;19979;-81
2021/07/14 07:22:46;;;;;;;;;;;;;;;-142.75;75.85;76503.38;5050437;28;19936;-78
2021/07/14 07:25:12;;;;;;;;;;;;;;;-142.75;75.94;76501.41;5054622;28;19920;-81
2021/07/14 07:27:38;;;;;;;;;;;;;;;-142.75;75.92;76503.38;5052334;28;19916;-80
2021/07/14 07:30:05;;;;;;;;;;;;;;;-142.75;75.91;76501.41;5061994;28;20349;-78
2021/07/14 07:32:30;;;;;;;;;;;;;;;-142.75;75.48;76499.44;5048666;28;19925;-80
2021/07/14 07:34:55;;;;;;;;;;;;;;;-142.75;75.60;76491.56;5063269;28;19967;-83
2021/07/14 07:37:20;;;;;;;;;;;;;;;-142.75;75.46;76483.69;5049342;28;20003;-79
2021/07/14 07:39:46;;;;;;;;;;;;;;;-142.75;75.29;76473.84;5054211;28;19921;-78
2021/07/14 07:42:11;;;;;;;;;;;;;;;-142.75;74.82;76469.91;5065276;28;19921;-78
2021/07/14 07:44:37;;;;;;;;;;;;;;;-142.75;74.63;76460.06;5046955;28;19927;-77
2021/07/14 07:47:02;;;;;;;;;;;;;;;-142.75;73.82;76450.22;5051490;28;19921;-78
2021/07/14 07:49:27;;;;;;;;;;;;;;;-142.75;74.00;76436.44;5059803;28;19917;-79
2021/07/14 07:51:52;;;;;;;;;;;;;;;-142.75;73.00;76408.88;5057266;28;19970;-80
2021/07/14 07:54:18;;;;;;;;;;;;;;;-142.75;72.06;76393.13;5055737;28;19966;-80
2021/07/14 07:56:43;;;;;;;;;;;;;;;-142.75;71.53;76385.25;5067647;28;19920;-79
2021/07/14 07:59:08;;;;;;;;;;;;;;;-142.75;71.32;76381.31;5064844;28;19943;-81
2021/07/14 08:01:34;;;;;;;;;;;;;;;-142.75;70.92;76385.25;5054189;28;19916;-81
2021/07/14 08:04:00;;;;;;;;;;;;;;;-142.75;70.87;76383.28;5063639;28;19948;-81
2021/07/14 08:06:25;;;;;;;;;;;;;;;-142.75;71.22;76393.13;5066108;28;19968;-82
2021/07/14 08:08:50;;;;;;;;;;;;;;;-142.75;71.56;76395.09;5054670;28;19916;-82
2021/07/14 08:11:15;;;;;;;;;;;;;;;-142.75;71.36;76385.25;5066055;28;20333;-83
2021/07/14 08:13:40;;;;;;;;;;;;;;;-142.75;71.32;76375.41;5053731;28;19921;-79
2021/07/14 08:16:07;;;;;;;;;;;;;;;-142.75;70.97;76381.31;5062105;28;19917;-82
2021/07/14 08:18:32;;;;;;;;;;;;;;;-142.75;71.34;76397.06;5065243;28;19923;-80
2021/07/14 08:20:57;;;;;;;;;;;;;;;-142.75;71.23;76395.09;5059829;28;19916;-81
2021/07/14 08:23:24;;;;;;;;;;;;;;;-142.75;71.41;76397.06;5069186;28;19936;-79
2021/07/14 08:25:53;;;;;;;;;;;;;;;-142.75;71.44;76395.09;5052570;28;19923;-81
2021/07/14 08:28:19;;;;;;;;;;;;;;;-142.75;71.33;76393.13;5053838;28;20003;-79
2021/07/14 08:30:44;;;;;;;;;;;;;;;-142.75;71.57;76402.97;5062247;28;20437;-79
2021/07/14 08:33:09;;;;;;;;;;;;;;;-142.75;71.78;76397.06;5065726;28;19947;-79
2021/07/14 08:35:34;;;;;;;;;;;;;;;-142.75;72.24;76397.06;5054813;28;19920;-80
2021/07/14 08:38:00;;;;;;;;;;;;;;;-142.75;71.36;76391.16;5063204;28;19924;-80
2021/07/14 08:40:25;;;;;;;;;;;;;;;-142.75;71.29;76387.22;5065988;28;20609;-80
2021/07/14 08:42:53;;;;;;;;;;;;;;;-142.75;71.22;76389.19;5059941;28;19917;-81
2021/07/14 08:45:19;;;;;;;;;;;;;;;-142.75;71.05;76381.31;5058425;28;20023;-80
2021/07/14 08:47:45;;;;;;;;;;;;;;;-142.75;71.38;76385.25;5060273;28;20416;-80
2021/07/14 08:50:12;;;;;;;;;;;;;;;-142.75;71.56;76371.47;5067321;28;20010;-83
2021/07/14 08:52:38;;;;;;;;;;;;;;;-142.75;71.28;76359.66;5058388;28;20297;-81
2021/07/14 08:55:04;;;;;;;;;;;;;;;-142.75;70.92;76367.53;5060867;28;19916;-81
2021/07/14 08:57:29;;;;;;;;;;;;;;;-142.75;71.43;76361.63;5071017;28;20006;-79
2021/07/14 08:59:54;;;;;;;;;;;;;;;-142.75;71.13;76351.81;5061377;28;19925;-80
2021/07/14 09:02:19;;;;;;;;;;;;;;;-142.75;70.59;76351.81;5055095;28;19916;-78
2021/07/14 09:04:45;;;;;;;;;;;;;;;-142.75;70.98;76353.78;5054555;28;19947;-80
2021/07/14 09:07:10;;;;;;;;;;;;;;;-142.75;71.17;76334.09;5059775;28;19921;-80
2021/07/14 09:09:37;;;;;;;;;;;;;;;-142.75;71.06;76318.34;5053021;28;19928;-81
2021/07/14 09:12:07;;;;;;;;;;;;;;;-142.75;71.06;76306.53;5054158;28;19975;-81
2021/07/14 09:14:37;;;;;;;;;;;;;;;-142.75;70.33;76304.56;5055134;28;20389;-80
2021/07/14 09:17:19;;;;;;;;;;;;;;;-142.75;70.26;76310.47;5055766;28;20311;-81
2021/07/14 09:19:45;;;;;;;;;;;;;;;-142.75;70.48;76316.38;5052706;28;19981;-78
2021/07/14 09:22:18;;;;;;;;;;;;;;;-142.75;70.55;76318.34;5055777;28;20291;-82
2021/07/14 09:24:43;;;;;;;;;;;;;;;-142.75;70.57;76330.16;5063025;28;19925;-81
2021/07/14 09:27:15;;;;;;;;;;;;;;;-142.75;70.64;76338.03;5065272;28;20439;-82
2021/07/14 09:29:40;;;;;;;;;;;;;;;-142.75;71.03;76345.91;5058961;28;19917;-82
2021/07/14 09:32:08;;;;;;;;;;;;;;;-142.75;71.17;76349.81;5059354;28;19931;-81
2021/07/14 09:34:33;;;;;;;;;;;;;;;-142.75;70.96;76347.84;5066110;28;19924;-79
2021/07/14 09:36:59;;;;;;;;;;;;;;;-142.75;71.01;76332.13;5063639;28;19916;-79
2021/07/14 09:39:30;;;;;;;;;;;;;;;-142.75;70.58;76320.31;5061673;28;20023;-80
2021/07/14 09:42:03;;;;;;;;;;;;;;;-142.75;70.22;76314.41;5065868;28;20298;-80
2021/07/14 09:44:28;;;;;;;;;;;;;;;-142.75;69.95;76306.53;5064788;28;19924;-79
2021/07/14 09:47:09;;;;;;;;;;;;;;;-142.75;69.69;76294.72;5054374;28;19942;-82
2021/07/14 09:49:35;;;;;;;;;;;;;;;-142.75;69.51;76265.19;5062501;28;19955;-80
2021/07/14 09:52:11;;;;;;;;;;;;;;;-142.75;68.98;76217.94;5053626;28;19943;-79
2021/07/14 09:54:36;;;;;;;;;;;;;;;-142.75;67.56;76212.03;5061182;28;19921;-79
2021/07/14 09:57:18;;;;;;;;;;;;;;;-142.75;67.27;76229.75;5054878;28;20401;-79
2021/07/14 09:59:44;;;;;;;;;;;;;;;-142.75;68.15;76235.66;5057854;28;19920;-80
2021/07/14 10:02:13;;;;;;;;;;;;;;;-142.75;68.17;76235.66;5065315;28;19925;-79
2021/07/14 10:04:40;;;;;;;;;;;;;;;-142.75;68.06;76200.25;5054047;28;19917;-82
2021/07/14 10:07:05;;;;;;;;;;;;;;;-142.75;66.82;76188.44;5055230;28;19916;-80
2021/07/14 10:09:31;;;;;;;;;;;;;;;-142.75;66.67;76192.38;5054038;28;19923;-80
2021/07/14 10:12:16;;;;;;;;;;;;;;;-142.75;66.97;76217.94;5058437;28;19916;-82
2021/07/14 10:14:41;;;;;;;;;;;;;;;-142.75;67.84;76239.59;5065131;28;19948;-85
2021/07/14 10:17:06;;;;;;;;;;;;;;;-142.75;67.47;76249.44;5069096;28;19963;-83
2021/07/14 10:19:32;;;;;;;;;;;;;;;-142.75;68.03;76275.03;5056892;28;19924;-80
2021/07/14 10:21:58;;;;;;;;;;;;;;;-142.75;68.46;76278.97;5054997;28;19923;-82
2021/07/14 10:24:24;;;;;;;;;;;;;;;-142.75;68.76;76284.88;5064315;28;19970;-80
2021/07/14 10:26:51;;;;;;;;;;;;;;;-142.75;68.46;76284.88;5061525;28;19917;-81
2021/07/14 10:29:18;;;;;;;;;;;;;;;-142.75;68.37;76290.78;5063242;28;19931;-80
2021/07/14 10:31:46;;;;;;;;;;;;;;;-142.75;68.69;76275.03;5052739;28;19917;-82
2021/07/14 10:34:11;;;;;;;;;;;;;;;-142.75;68.70;76251.41;5062586;28;19916;-80
2021/07/14 10:36:37;;;;;;;;;;;;;;;-142.75;68.22;76241.56;5053682;28;19982;-80
2021/07/14 10:39:07;;;;;;;;;;;;;;;-142.75;67.46;76229.75;5073915;28;19921;-78
2021/07/14 10:41:32;;;;;;;;;;;;;;;-142.75;67.04;76233.69;5061304;28;19917;-78
2021/07/14 10:43:59;;;;;;;;;;;;;;;-142.75;67.39;76247.47;5064600;28;19925;-81
2021/07/14 10:46:25;;;;;;;;;;;;;;;-142.75;67.60;76259.28;5065858;28;19935;-81
2021/07/14 10:48:54;;;;;;;;;;;;;;;-142.75;68.21;76257.31;5058016;28;20402;-81
2021/07/14 10:51:19;;;;;;;;;;;;;;;-142.75;67.78;76219.91;5065929;28;19985;-82
2021/07/14 10:53:48;;;;;;;;;;;;;;;-142.75;67.66;76176.63;5067160;28;20442;-80
2021/07/14 10:56:14;;;;;;;;;;;;;;;-142.75;66.75;76149.06;5063710;28;19921;-78
2021/07/14 10:58:39;;;;;;;;;;;;;;;-142.75;66.00;76135.28;5062587;28;19923;-81
2021/07/14 11:01:05;;;;;;;;;;;;;;;-142.75;65.56;76145.13;5052447;28;19923;-81
2021/07/14 11:03:33;;;;;;;;;;;;;;;-142.75;65.06;76143.16;5063285;28;20502;-80
2021/07/14 11:05:59;;;;;;;;;;;;;;;-142.75;66.04;76137.25;5069923;28;19978;-82
2021/07/14 11:08:36;;;;;;;;;;;;;;;-142.75;65.40;76109.69;5056009;28;20386;-80
2021/07/14 11:11:01;;;;;;;;;;;;;;;-142.75;64.68;76105.75;5054461;28;19920;-81
2021/07/14 11:13:28;;;;;;;;;;;;;;;-142.75;64.04;76119.53;5058684;28;20012;-81
2021/07/14 11:15:54;;;;;;;;;;;;;;;-142.75;64.85;76143.16;5052546;28;19954;-79
2021/07/14 11:18:29;;;;;;;;;;;;;;;-142.75;65.31;76180.56;5050851;28;19947;-80
2021/07/14 11:20:54;;;;;;;;;;;;;;;-142.75;65.94;76180.56;5055717;28;19921;-85
2021/07/14 11:23:20;;;;;;;;;;;;;;;-142.75;65.86;76176.63;5062017;28;20455;-80
2021/07/14 11:25:47;;;;;;;;;;;;;;;-142.75;66.18;76176.63;5059923;28;19924;-80
2021/07/14 11:28:12;;;;;;;;;;;;;;;-142.75;66.35;76176.63;5066024;28;20390;-81
2021/07/14 11:30:39;;;;;;;;;;;;;;;-142.75;65.70;76182.53;5050604;28;19917;-79
2021/07/14 11:33:04;;;;;;;;;;;;;;;-142.75;66.48;76212.03;5054446;28;19917;-79
2021/07/14 11:35:32;;;;;;;;;;;;;;;-142.75;66.65;76231.72;5050774;28;19974;-81
2021/07/14 11:38:00;;;;;;;;;;;;;;;-142.75;67.51;76249.44;5052438;28;19927;-81
2021/07/14 11:40:25;;;;;;;;;;;;;;;-142.75;68.03;76251.41;5055468;28;19928;-81
2021/07/14 11:42:53;;;;;;;;;;;;;;;-142.75;67.69;76261.25;5054588;28;19917;-79
2021/07/14 11:45:19;;;;;;;;;;;;;;;-142.75;68.22;76271.09;5050583;28;19924;-83
2021/07/14 11:47:44;;;;;;;;;;;;;;;-142.75;68.30;76273.06;5051781;28;20342;-82
2021/07/14 11:50:10;;;;;;;;;;;;;;;-142.75;69.19;76267.16;5063802;28;19954;-82
2021/07/14 11:52:42;;;;;;;;;;;;;;;-142.75;68.52;76263.22;5077159;22;19964;-79
2021/07/14 11:55:23;;;;;;;;;;;;;;;-142.75;68.71;76259.28;5037489;28;19924;-81
2021/07/14 11:57:48;;;;;;;;;;;;;;;-142.75;69.14;76245.50;5037720;28;20329;-80
2021/07/14 12:00:14;;;;;;;;;;;;;;;-142.75;68.18;76227.78;5034705;28;19928;-81
2021/07/14 12:02:39;;;;;;;;;;;;;;;-142.75;68.49;76212.03;5051178;28;19920;-84
2021/07/14 12:05:09;;;;;;;;;;;;;;;-142.75;67.53;76200.25;5050876;28;19923;-79
2021/07/14 12:07:39;;;;;;;;;;;;;;;-142.75;67.81;76202.19;5042563;28;20294;-81
2021/07/14 12:10:14;;;;;;;;;;;;;;;-142.75;67.44;76208.09;5052256;28;20012;-81
2021/07/14 12:12:44;;;;;;;;;;;;;;;-142.75;67.67;76188.44;5050710;28;20378;-81
2021/07/14 12:15:09;;;;;;;;;;;;;;;-142.75;67.37;76186.47;5050036;28;19917;-81
2021/07/14 12:17:35;;;;;;;;;;;;;;;-142.75;67.24;76184.50;5038845;28;19917;-80
2021/07/14 12:20:00;;;;;;;;;;;;;;;-142.75;67.38;76174.66;5038427;28;19921;-81
2021/07/14 12:22:26;;;;;;;;;;;;;;;-142.75;67.45;76204.16;5035058;28;19999;-80
2021/07/14 12:24:53;;;;;;;;;;;;;;;-142.75;67.56;76219.91;5051179;28;19924;-79
2021/07/14 12:27:23;;;;;;;;;;;;;;;-142.75;67.96;76219.91;5051094;28;20334;-80
2021/07/14 12:30:07;;;;;;;;;;;;;;;-142.75;68.00;76215.97;5061377;28;19921;-80
2021/07/14 12:32:45;;;;;;;;;;;;;;;-142.75;68.01;76200.25;5060512;28;19916;-81
2021/07/14 12:35:16;;;;;;;;;;;;;;;-142.75;67.41;76196.31;5059877;28;20000;-79